sensor_id;sensor_type;location;lat;lon;timestamp;temperature;humidity
13976;DHT22;7062;49.792;9.946;2022-10-23T00:00:34;12.40;99.90
13976;DHT22;7062;49.792;9.946;2022-10-23T00:03:00;12.40;99.90
13976;DHT22;7062;49.792;9.946;2022-10-23T00:05:27;12.40;99.90
13976;DHT22;7062;49.792;9.946;2022-10-23T00:07:54;12.30;99.90
13976;DHT22;7062;49.792;9.946;2022-10-23T00:10:22;12.20;99.90
13976;DHT22;7062;49.792;9.946;2022-10-23T00:12:48;12.20;99.90
13976;DHT22;7062;49.792;9.946;2022-10-23T00:15:17;12.20;99.90
13976;DHT22;7062;49.792;9.946;2022-10-23T00:17:43;12.30;99.90
13976;DHT22;7062;49.792;9.946;2022-10-23T00:20:09;12.20;99.90
13976;DHT22;7062;49.792;9.946;2022-10-23T00:22:35;12.20;99.90
13976;DHT22;7062;49.792;9.946;2022-10-23T00:25:01;12.20;99.90
13976;DHT22;7062;49.792;9.946;2022-10-23T00:27:26;12.10;99.90
13976;DHT22;7062;49.792;9.946;2022-10-23T00:29:52;12.10;99.90
13976;DHT22;7062;49.792;9.946;2022-10-23T00:32:17;12.00;99.90
13976;DHT22;7062;49.792;9.946;2022-10-23T00:34:43;12.10;99.90
13976;DHT22;7062;49.792;9.946;2022-10-23T00:37:09;12.10;99.90
13976;DHT22;7062;49.792;9.946;2022-10-23T00:39:34;12.20;99.90
13976;DHT22;7062;49.792;9.946;2022-10-23T00:42:00;12.10;99.90
13976;DHT22;7062;49.792;9.946;2022-10-23T00:46:54;12.10;99.90
13976;DHT22;7062;49.792;9.946;2022-10-23T00:49:20;12.00;99.90
13976;DHT22;7062;49.792;9.946;2022-10-23T00:51:50;12.00;99.90
13976;DHT22;7062;49.792;9.946;2022-10-23T00:54:20;11.90;99.90
13976;DHT22;7062;49.792;9.946;2022-10-23T00:56:47;12.00;99.90
13976;DHT22;7062;49.792;9.946;2022-10-23T00:59:12;12.00;99.90
13976;DHT22;7062;49.792;9.946;2022-10-23T01:01:38;11.90;99.90
13976;DHT22;7062;49.792;9.946;2022-10-23T01:04:05;11.90;99.90
13976;DHT22;7062;49.792;9.946;2022-10-23T01:06:44;11.80;99.90
13976;DHT22;7062;49.792;9.946;2022-10-23T01:09:37;11.80;99.90
13976;DHT22;7062;49.792;9.946;2022-10-23T01:18:25;11.80;99.90
13976;DHT22;7062;49.792;9.946;2022-10-23T01:28:48;11.80;99.90
13976;DHT22;7062;49.792;9.946;2022-10-23T01:31:21;11.80;99.90
13976;DHT22;7062;49.792;9.946;2022-10-23T01:33:57;11.80;99.90
13976;DHT22;7062;49.792;9.946;2022-10-23T01:36:27;11.80;99.90
13976;DHT22;7062;49.792;9.946;2022-10-23T01:39:08;11.80;99.90
13976;DHT22;7062;49.792;9.946;2022-10-23T01:41:48;11.80;99.90
13976;DHT22;7062;49.792;9.946;2022-10-23T01:46:58;11.70;99.90
13976;DHT22;7062;49.792;9.946;2022-10-23T01:49:26;11.70;99.90
13976;DHT22;7062;49.792;9.946;2022-10-23T01:51:55;11.70;99.90
13976;DHT22;7062;49.792;9.946;2022-10-23T01:54:24;11.60;99.90
13976;DHT22;7062;49.792;9.946;2022-10-23T01:56:51;11.60;99.90
13976;DHT22;7062;49.792;9.946;2022-10-23T01:59:26;11.50;99.90
13976;DHT22;7062;49.792;9.946;2022-10-23T02:01:55;11.60;99.90
13976;DHT22;7062;49.792;9.946;2022-10-23T02:04:26;11.50;99.90
13976;DHT22;7062;49.792;9.946;2022-10-23T02:06:52;11.50;99.90
13976;DHT22;7062;49.792;9.946;2022-10-23T02:09:18;11.50;99.90
13976;DHT22;7062;49.792;9.946;2022-10-23T02:11:52;11.50;99.90
13976;DHT22;7062;49.792;9.946;2022-10-23T02:14:51;11.50;99.90
13976;DHT22;7062;49.792;9.946;2022-10-23T02:19:59;11.30;99.90
13976;DHT22;7062;49.792;9.946;2022-10-23T02:22:36;11.40;99.90
13976;DHT22;7062;49.792;9.946;2022-10-23T02:25:24;11.30;99.90
13976;DHT22;7062;49.792;9.946;2022-10-23T02:27:54;11.40;99.90
13976;DHT22;7062;49.792;9.946;2022-10-23T02:30:21;11.30;99.90
13976;DHT22;7062;49.792;9.946;2022-10-23T02:32:49;11.30;99.90
13976;DHT22;7062;49.792;9.946;2022-10-23T02:35:18;11.30;99.90
13976;DHT22;7062;49.792;9.946;2022-10-23T02:37:59;11.30;99.90
13976;DHT22;7062;49.792;9.946;2022-10-23T02:40:37;11.20;99.90
13976;DHT22;7062;49.792;9.946;2022-10-23T02:43:14;11.20;99.90
13976;DHT22;7062;49.792;9.946;2022-10-23T02:48:21;11.30;99.90
13976;DHT22;7062;49.792;9.946;2022-10-23T02:51:04;11.20;99.90
13976;DHT22;7062;49.792;9.946;2022-10-23T02:59:00;11.20;99.90
13976;DHT22;7062;49.792;9.946;2022-10-23T03:01:38;11.10;99.90
13976;DHT22;7062;49.792;9.946;2022-10-23T03:04:05;11.00;99.90
13976;DHT22;7062;49.792;9.946;2022-10-23T03:06:33;11.10;99.90
13976;DHT22;7062;49.792;9.946;2022-10-23T03:09:03;11.00;99.90
13976;DHT22;7062;49.792;9.946;2022-10-23T03:11:28;11.10;99.90
13976;DHT22;7062;49.792;9.946;2022-10-23T03:13:54;11.20;99.90
13976;DHT22;7062;49.792;9.946;2022-10-23T03:16:20;11.20;99.90
13976;DHT22;7062;49.792;9.946;2022-10-23T03:18:46;11.20;99.90
13976;DHT22;7062;49.792;9.946;2022-10-23T03:21:11;11.20;99.90
13976;DHT22;7062;49.792;9.946;2022-10-23T03:23:37;11.20;99.90
13976;DHT22;7062;49.792;9.946;2022-10-23T03:26:03;11.20;99.90
13976;DHT22;7062;49.792;9.946;2022-10-23T03:28:29;11.10;99.90
13976;DHT22;7062;49.792;9.946;2022-10-23T03:30:54;11.20;99.90
13976;DHT22;7062;49.792;9.946;2022-10-23T03:33:20;11.20;99.90
13976;DHT22;7062;49.792;9.946;2022-10-23T03:35:47;11.30;99.90
13976;DHT22;7062;49.792;9.946;2022-10-23T03:38:13;11.20;99.90
13976;DHT22;7062;49.792;9.946;2022-10-23T03:40:39;11.20;99.90
13976;DHT22;7062;49.792;9.946;2022-10-23T03:43:04;11.10;99.90
13976;DHT22;7062;49.792;9.946;2022-10-23T03:45:30;11.00;99.90
13976;DHT22;7062;49.792;9.946;2022-10-23T03:47:57;11.00;99.90
13976;DHT22;7062;49.792;9.946;2022-10-23T03:50:22;11.00;99.90
13976;DHT22;7062;49.792;9.946;2022-10-23T03:52:48;10.90;99.90
13976;DHT22;7062;49.792;9.946;2022-10-23T03:55:14;11.00;99.90
13976;DHT22;7062;49.792;9.946;2022-10-23T03:57:40;11.00;99.90
13976;DHT22;7062;49.792;9.946;2022-10-23T04:00:06;11.10;99.90
13976;DHT22;7062;49.792;9.946;2022-10-23T04:02:32;11.10;99.90
13976;DHT22;7062;49.792;9.946;2022-10-23T04:04:58;11.10;99.90
13976;DHT22;7062;49.792;9.946;2022-10-23T04:07:24;11.00;99.90
13976;DHT22;7062;49.792;9.946;2022-10-23T04:09:49;11.00;99.90
13976;DHT22;7062;49.792;9.946;2022-10-23T04:12:15;11.10;99.90
13976;DHT22;7062;49.792;9.946;2022-10-23T04:14:41;11.00;99.90
13976;DHT22;7062;49.792;9.946;2022-10-23T04:17:06;11.00;99.90
13976;DHT22;7062;49.792;9.946;2022-10-23T04:19:32;11.10;99.90
13976;DHT22;7062;49.792;9.946;2022-10-23T04:21:57;11.10;99.90
13976;DHT22;7062;49.792;9.946;2022-10-23T04:24:24;11.10;99.90
13976;DHT22;7062;49.792;9.946;2022-10-23T04:26:50;11.10;99.90
13976;DHT22;7062;49.792;9.946;2022-10-23T04:29:16;11.10;99.90
13976;DHT22;7062;49.792;9.946;2022-10-23T04:31:42;11.10;99.90
13976;DHT22;7062;49.792;9.946;2022-10-23T04:34:07;11.10;99.90
13976;DHT22;7062;49.792;9.946;2022-10-23T04:36:33;11.10;99.90
13976;DHT22;7062;49.792;9.946;2022-10-23T04:38:59;11.10;99.90
13976;DHT22;7062;49.792;9.946;2022-10-23T04:41:24;11.10;99.90
13976;DHT22;7062;49.792;9.946;2022-10-23T04:43:50;11.00;99.90
13976;DHT22;7062;49.792;9.946;2022-10-23T04:46:15;11.10;99.90
13976;DHT22;7062;49.792;9.946;2022-10-23T04:48:41;11.10;99.90
13976;DHT22;7062;49.792;9.946;2022-10-23T04:51:07;11.10;99.90
13976;DHT22;7062;49.792;9.946;2022-10-23T04:53:33;11.10;99.90
13976;DHT22;7062;49.792;9.946;2022-10-23T04:55:59;11.20;99.90
13976;DHT22;7062;49.792;9.946;2022-10-23T04:58:26;11.20;99.90
13976;DHT22;7062;49.792;9.946;2022-10-23T05:00:52;11.10;99.90
13976;DHT22;7062;49.792;9.946;2022-10-23T05:03:21;11.30;99.90
13976;DHT22;7062;49.792;9.946;2022-10-23T05:05:47;11.20;99.90
13976;DHT22;7062;49.792;9.946;2022-10-23T05:08:13;11.20;99.90
13976;DHT22;7062;49.792;9.946;2022-10-23T05:10:39;11.10;99.90
13976;DHT22;7062;49.792;9.946;2022-10-23T05:13:06;11.10;99.90
13976;DHT22;7062;49.792;9.946;2022-10-23T05:15:32;11.10;99.90
13976;DHT22;7062;49.792;9.946;2022-10-23T05:18:03;11.00;99.90
13976;DHT22;7062;49.792;9.946;2022-10-23T05:20:33;11.10;99.90
13976;DHT22;7062;49.792;9.946;2022-10-23T05:23:01;11.10;99.90
13976;DHT22;7062;49.792;9.946;2022-10-23T05:25:29;11.00;99.90
13976;DHT22;7062;49.792;9.946;2022-10-23T05:27:55;11.00;99.90
13976;DHT22;7062;49.792;9.946;2022-10-23T05:30:21;11.00;99.90
13976;DHT22;7062;49.792;9.946;2022-10-23T05:32:46;11.10;99.90
13976;DHT22;7062;49.792;9.946;2022-10-23T05:35:16;11.10;99.90
13976;DHT22;7062;49.792;9.946;2022-10-23T05:37:44;10.90;99.90
13976;DHT22;7062;49.792;9.946;2022-10-23T05:40:12;10.90;99.90
13976;DHT22;7062;49.792;9.946;2022-10-23T05:42:37;11.00;99.90
13976;DHT22;7062;49.792;9.946;2022-10-23T05:45:03;11.00;99.90
13976;DHT22;7062;49.792;9.946;2022-10-23T05:47:29;10.90;99.90
13976;DHT22;7062;49.792;9.946;2022-10-23T05:49:56;11.00;99.90
13976;DHT22;7062;49.792;9.946;2022-10-23T05:52:22;11.20;99.90
13976;DHT22;7062;49.792;9.946;2022-10-23T05:54:50;11.10;99.90
13976;DHT22;7062;49.792;9.946;2022-10-23T05:57:16;11.10;99.90
13976;DHT22;7062;49.792;9.946;2022-10-23T05:59:42;11.20;99.90
13976;DHT22;7062;49.792;9.946;2022-10-23T06:02:08;11.20;99.90
13976;DHT22;7062;49.792;9.946;2022-10-23T06:04:34;11.20;99.90
13976;DHT22;7062;49.792;9.946;2022-10-23T06:07:00;11.10;99.90
13976;DHT22;7062;49.792;9.946;2022-10-23T06:09:26;11.00;99.90
13976;DHT22;7062;49.792;9.946;2022-10-23T06:11:52;11.10;99.90
13976;DHT22;7062;49.792;9.946;2022-10-23T06:14:17;11.00;99.90
13976;DHT22;7062;49.792;9.946;2022-10-23T06:16:43;11.00;99.90
13976;DHT22;7062;49.792;9.946;2022-10-23T06:19:10;10.90;99.90
13976;DHT22;7062;49.792;9.946;2022-10-23T06:21:37;10.90;99.90
13976;DHT22;7062;49.792;9.946;2022-10-23T06:24:04;10.90;99.90
13976;DHT22;7062;49.792;9.946;2022-10-23T06:26:30;10.90;99.90
13976;DHT22;7062;49.792;9.946;2022-10-23T06:28:56;11.00;99.90
13976;DHT22;7062;49.792;9.946;2022-10-23T06:31:22;11.00;99.90
13976;DHT22;7062;49.792;9.946;2022-10-23T06:33:54;11.10;99.90
13976;DHT22;7062;49.792;9.946;2022-10-23T06:36:20;11.10;99.90
13976;DHT22;7062;49.792;9.946;2022-10-23T06:38:46;11.10;99.90
13976;DHT22;7062;49.792;9.946;2022-10-23T06:41:15;11.20;99.90
13976;DHT22;7062;49.792;9.946;2022-10-23T06:43:41;11.30;99.90
13976;DHT22;7062;49.792;9.946;2022-10-23T06:46:07;11.30;99.90
13976;DHT22;7062;49.792;9.946;2022-10-23T06:48:34;11.40;99.90
13976;DHT22;7062;49.792;9.946;2022-10-23T06:51:04;11.30;99.90
13976;DHT22;7062;49.792;9.946;2022-10-23T06:53:30;11.40;99.90
13976;DHT22;7062;49.792;9.946;2022-10-23T06:55:59;11.40;99.90
13976;DHT22;7062;49.792;9.946;2022-10-23T06:58:25;11.40;99.90
13976;DHT22;7062;49.792;9.946;2022-10-23T07:00:51;11.50;99.90
13976;DHT22;7062;49.792;9.946;2022-10-23T07:03:17;11.50;99.90
13976;DHT22;7062;49.792;9.946;2022-10-23T07:05:42;11.50;99.90
13976;DHT22;7062;49.792;9.946;2022-10-23T07:08:09;11.60;99.90
13976;DHT22;7062;49.792;9.946;2022-10-23T07:10:35;11.60;99.90
13976;DHT22;7062;49.792;9.946;2022-10-23T07:13:01;11.70;99.90
13976;DHT22;7062;49.792;9.946;2022-10-23T07:15:28;11.70;99.90
13976;DHT22;7062;49.792;9.946;2022-10-23T07:17:54;11.70;99.90
13976;DHT22;7062;49.792;9.946;2022-10-23T07:20:20;11.90;99.90
13976;DHT22;7062;49.792;9.946;2022-10-23T07:22:54;11.90;99.90
13976;DHT22;7062;49.792;9.946;2022-10-23T07:25:23;12.00;99.90
13976;DHT22;7062;49.792;9.946;2022-10-23T07:27:49;12.00;99.90
13976;DHT22;7062;49.792;9.946;2022-10-23T07:30:16;12.10;99.90
13976;DHT22;7062;49.792;9.946;2022-10-23T07:32:42;12.10;99.90
13976;DHT22;7062;49.792;9.946;2022-10-23T07:35:09;12.30;99.90
13976;DHT22;7062;49.792;9.946;2022-10-23T07:37:35;12.40;99.90
13976;DHT22;7062;49.792;9.946;2022-10-23T07:40:02;12.40;99.90
13976;DHT22;7062;49.792;9.946;2022-10-23T07:42:27;12.40;99.90
13976;DHT22;7062;49.792;9.946;2022-10-23T07:44:53;12.50;99.90
13976;DHT22;7062;49.792;9.946;2022-10-23T07:47:18;12.60;99.90
13976;DHT22;7062;49.792;9.946;2022-10-23T07:49:45;12.60;99.90
13976;DHT22;7062;49.792;9.946;2022-10-23T07:52:11;12.60;99.90
13976;DHT22;7062;49.792;9.946;2022-10-23T07:54:37;12.60;99.90
13976;DHT22;7062;49.792;9.946;2022-10-23T07:57:02;12.90;99.90
13976;DHT22;7062;49.792;9.946;2022-10-23T07:59:28;13.00;99.90
13976;DHT22;7062;49.792;9.946;2022-10-23T08:01:54;13.10;99.90
13976;DHT22;7062;49.792;9.946;2022-10-23T08:04:21;13.30;99.90
13976;DHT22;7062;49.792;9.946;2022-10-23T08:06:47;13.30;99.90
13976;DHT22;7062;49.792;9.946;2022-10-23T08:09:12;13.50;99.90
13976;DHT22;7062;49.792;9.946;2022-10-23T08:11:38;13.60;99.90
13976;DHT22;7062;49.792;9.946;2022-10-23T08:14:05;13.60;99.90
13976;DHT22;7062;49.792;9.946;2022-10-23T08:16:32;13.70;99.90
13976;DHT22;7062;49.792;9.946;2022-10-23T08:18:59;13.80;99.90
13976;DHT22;7062;49.792;9.946;2022-10-23T08:21:24;13.90;99.90
13976;DHT22;7062;49.792;9.946;2022-10-23T08:23:53;14.20;99.90
13976;DHT22;7062;49.792;9.946;2022-10-23T08:26:19;14.50;99.90
13976;DHT22;7062;49.792;9.946;2022-10-23T08:28:45;14.60;99.90
13976;DHT22;7062;49.792;9.946;2022-10-23T08:31:13;14.80;99.90
13976;DHT22;7062;49.792;9.946;2022-10-23T08:33:39;14.50;99.90
13976;DHT22;7062;49.792;9.946;2022-10-23T08:36:05;14.40;99.90
13976;DHT22;7062;49.792;9.946;2022-10-23T08:38:39;14.40;99.90
13976;DHT22;7062;49.792;9.946;2022-10-23T08:41:05;14.50;99.90
13976;DHT22;7062;49.792;9.946;2022-10-23T08:43:38;14.40;99.90
13976;DHT22;7062;49.792;9.946;2022-10-23T08:46:11;14.50;99.90
13976;DHT22;7062;49.792;9.946;2022-10-23T08:48:40;14.50;99.90
13976;DHT22;7062;49.792;9.946;2022-10-23T08:54:07;14.10;99.90
13976;DHT22;7062;49.792;9.946;2022-10-23T08:56:41;14.10;99.90
13976;DHT22;7062;49.792;9.946;2022-10-23T09:04:40;13.90;99.90
13976;DHT22;7062;49.792;9.946;2022-10-23T09:07:38;14.00;99.90
13976;DHT22;7062;49.792;9.946;2022-10-23T09:12:40;14.50;99.90
13976;DHT22;7062;49.792;9.946;2022-10-23T09:17:44;14.80;99.90
13976;DHT22;7062;49.792;9.946;2022-10-23T09:22:43;15.30;99.90
13976;DHT22;7062;49.792;9.946;2022-10-23T09:25:23;15.60;99.90
13976;DHT22;7062;49.792;9.946;2022-10-23T09:27:52;16.00;99.90
13976;DHT22;7062;49.792;9.946;2022-10-23T09:30:40;17.20;99.90
13976;DHT22;7062;49.792;9.946;2022-10-23T09:33:32;18.20;99.90
13976;DHT22;7062;49.792;9.946;2022-10-23T09:36:05;18.70;99.90
13976;DHT22;7062;49.792;9.946;2022-10-23T09:41:10;18.60;99.90
13976;DHT22;7062;49.792;9.946;2022-10-23T09:43:37;19.20;99.90
13976;DHT22;7062;49.792;9.946;2022-10-23T09:46:05;20.40;99.90
13976;DHT22;7062;49.792;9.946;2022-10-23T09:48:31;22.30;99.90
13976;DHT22;7062;49.792;9.946;2022-10-23T09:51:00;23.70;99.90
13976;DHT22;7062;49.792;9.946;2022-10-23T09:53:38;25.50;99.90
13976;DHT22;7062;49.792;9.946;2022-10-23T09:56:16;26.90;99.90
13976;DHT22;7062;49.792;9.946;2022-10-23T10:01:46;29.20;99.90
13976;DHT22;7062;49.792;9.946;2022-10-23T10:04:11;30.70;99.90
13976;DHT22;7062;49.792;9.946;2022-10-23T10:06:37;31.80;99.40
13976;DHT22;7062;49.792;9.946;2022-10-23T10:09:15;32.10;97.60
13976;DHT22;7062;49.792;9.946;2022-10-23T10:11:56;31.10;97.00
13976;DHT22;7062;49.792;9.946;2022-10-23T10:14:51;29.60;98.40
13976;DHT22;7062;49.792;9.946;2022-10-23T10:22:39;29.30;99.60
13976;DHT22;7062;49.792;9.946;2022-10-23T10:28:30;32.20;95.70
13976;DHT22;7062;49.792;9.946;2022-10-23T10:31:08;33.40;94.80
13976;DHT22;7062;49.792;9.946;2022-10-23T10:37:01;34.20;91.90
13976;DHT22;7062;49.792;9.946;2022-10-23T10:42:35;29.60;94.90
13976;DHT22;7062;49.792;9.946;2022-10-23T10:48:02;31.70;94.50
13976;DHT22;7062;49.792;9.946;2022-10-23T10:50:51;34.60;92.40
13976;DHT22;7062;49.792;9.946;2022-10-23T10:56:04;35.90;88.80
13976;DHT22;7062;49.792;9.946;2022-10-23T10:58:44;34.40;88.90
13976;DHT22;7062;49.792;9.946;2022-10-23T11:04:15;33.10;90.80
13976;DHT22;7062;49.792;9.946;2022-10-23T11:06:45;32.00;91.30
13976;DHT22;7062;49.792;9.946;2022-10-23T11:09:19;31.60;91.70
13976;DHT22;7062;49.792;9.946;2022-10-23T11:11:44;30.90;92.00
13976;DHT22;7062;49.792;9.946;2022-10-23T11:14:20;30.30;92.50
13976;DHT22;7062;49.792;9.946;2022-10-23T11:16:49;29.60;93.40
13976;DHT22;7062;49.792;9.946;2022-10-23T11:19:29;28.50;94.20
13976;DHT22;7062;49.792;9.946;2022-10-23T11:22:15;28.30;94.80
13976;DHT22;7062;49.792;9.946;2022-10-23T11:37:59;23.00;99.90
13976;DHT22;7062;49.792;9.946;2022-10-23T11:40:25;22.40;99.90
13976;DHT22;7062;49.792;9.946;2022-10-23T11:42:51;21.80;99.90
13976;DHT22;7062;49.792;9.946;2022-10-23T11:45:35;21.70;99.90
13976;DHT22;7062;49.792;9.946;2022-10-23T11:48:22;21.70;99.90
13976;DHT22;7062;49.792;9.946;2022-10-23T11:50:59;21.70;99.90
13976;DHT22;7062;49.792;9.946;2022-10-23T11:53:26;21.70;99.90
13976;DHT22;7062;49.792;9.946;2022-10-23T11:58:45;21.50;99.90
13976;DHT22;7062;49.792;9.946;2022-10-23T12:01:38;21.40;99.90
13976;DHT22;7062;49.792;9.946;2022-10-23T12:06:52;21.30;99.90
13976;DHT22;7062;49.792;9.946;2022-10-23T12:09:30;21.50;99.90
13976;DHT22;7062;49.792;9.946;2022-10-23T12:14:47;22.20;99.90
13976;DHT22;7062;49.792;9.946;2022-10-23T12:22:15;22.80;99.90
13976;DHT22;7062;49.792;9.946;2022-10-23T12:24:50;23.00;99.90
13976;DHT22;7062;49.792;9.946;2022-10-23T12:27:30;22.90;99.90
13976;DHT22;7062;49.792;9.946;2022-10-23T12:30:22;22.70;99.90
13976;DHT22;7062;49.792;9.946;2022-10-23T12:38:21;22.60;99.90
13976;DHT22;7062;49.792;9.946;2022-10-23T12:41:23;22.50;99.90
13976;DHT22;7062;49.792;9.946;2022-10-23T12:43:52;22.60;99.90
13976;DHT22;7062;49.792;9.946;2022-10-23T12:46:33;22.50;99.90
13976;DHT22;7062;49.792;9.946;2022-10-23T12:49:02;22.30;99.90
13976;DHT22;7062;49.792;9.946;2022-10-23T12:51:31;22.00;99.90
13976;DHT22;7062;49.792;9.946;2022-10-23T12:53:57;21.80;99.90
13976;DHT22;7062;49.792;9.946;2022-10-23T12:56:24;21.60;99.90
13976;DHT22;7062;49.792;9.946;2022-10-23T12:58:53;21.30;99.90
13976;DHT22;7062;49.792;9.946;2022-10-23T13:01:27;21.20;99.90
13976;DHT22;7062;49.792;9.946;2022-10-23T13:03:58;21.00;99.90
13976;DHT22;7062;49.792;9.946;2022-10-23T13:06:26;20.80;99.90
13976;DHT22;7062;49.792;9.946;2022-10-23T13:08:52;20.70;99.90
13976;DHT22;7062;49.792;9.946;2022-10-23T13:11:19;20.50;99.90
13976;DHT22;7062;49.792;9.946;2022-10-23T13:13:46;20.40;99.90
13976;DHT22;7062;49.792;9.946;2022-10-23T13:16:20;20.40;99.90
13976;DHT22;7062;49.792;9.946;2022-10-23T13:18:46;20.40;99.90
13976;DHT22;7062;49.792;9.946;2022-10-23T13:21:32;20.50;99.90
13976;DHT22;7062;49.792;9.946;2022-10-23T13:23:58;20.80;99.90
13976;DHT22;7062;49.792;9.946;2022-10-23T13:26:33;21.20;99.90
13976;DHT22;7062;49.792;9.946;2022-10-23T13:29:00;21.40;99.90
13976;DHT22;7062;49.792;9.946;2022-10-23T13:31:32;21.70;99.90
13976;DHT22;7062;49.792;9.946;2022-10-23T13:36:26;22.50;99.90
13976;DHT22;7062;49.792;9.946;2022-10-23T13:41:25;24.80;99.90
13976;DHT22;7062;49.792;9.946;2022-10-23T13:43:51;25.40;99.90
13976;DHT22;7062;49.792;9.946;2022-10-23T13:46:19;25.90;99.90
13976;DHT22;7062;49.792;9.946;2022-10-23T13:48:45;26.70;99.90
13976;DHT22;7062;49.792;9.946;2022-10-23T13:53:45;29.00;99.90
13976;DHT22;7062;49.792;9.946;2022-10-23T13:56:16;29.90;99.70
13976;DHT22;7062;49.792;9.946;2022-10-23T13:58:41;30.60;98.10
13976;DHT22;7062;49.792;9.946;2022-10-23T14:01:33;29.90;98.40
13976;DHT22;7062;49.792;9.946;2022-10-23T14:04:00;30.30;97.80
13976;DHT22;7062;49.792;9.946;2022-10-23T14:06:26;30.20;97.70
13976;DHT22;7062;49.792;9.946;2022-10-23T14:08:52;30.10;97.40
13976;DHT22;7062;49.792;9.946;2022-10-23T14:11:19;29.70;97.80
13976;DHT22;7062;49.792;9.946;2022-10-23T14:13:46;29.90;98.00
13976;DHT22;7062;49.792;9.946;2022-10-23T14:16:13;31.20;96.50
13976;DHT22;7062;49.792;9.946;2022-10-23T14:18:39;32.20;96.10
13976;DHT22;7062;49.792;9.946;2022-10-23T14:21:06;32.50;94.90
13976;DHT22;7062;49.792;9.946;2022-10-23T14:23:32;32.10;94.60
13976;DHT22;7062;49.792;9.946;2022-10-23T14:26:07;31.50;94.80
13976;DHT22;7062;49.792;9.946;2022-10-23T14:28:33;30.10;95.90
13976;DHT22;7062;49.792;9.946;2022-10-23T14:31:07;28.90;97.10
13976;DHT22;7062;49.792;9.946;2022-10-23T14:33:33;27.60;98.80
13976;DHT22;7062;49.792;9.946;2022-10-23T14:35:58;26.80;99.80
13976;DHT22;7062;49.792;9.946;2022-10-23T14:38:24;25.80;99.90
13976;DHT22;7062;49.792;9.946;2022-10-23T14:40:50;25.20;99.90
13976;DHT22;7062;49.792;9.946;2022-10-23T14:43:15;24.90;99.90
13976;DHT22;7062;49.792;9.946;2022-10-23T14:45:41;25.00;99.90
13976;DHT22;7062;49.792;9.946;2022-10-23T14:48:06;25.00;99.90
13976;DHT22;7062;49.792;9.946;2022-10-23T14:50:34;25.10;99.90
13976;DHT22;7062;49.792;9.946;2022-10-23T14:53:00;25.10;99.90
13976;DHT22;7062;49.792;9.946;2022-10-23T14:55:25;24.90;99.90
13976;DHT22;7062;49.792;9.946;2022-10-23T14:57:55;24.60;99.90
13976;DHT22;7062;49.792;9.946;2022-10-23T15:00:21;24.20;99.90
13976;DHT22;7062;49.792;9.946;2022-10-23T15:02:47;24.00;99.90
13976;DHT22;7062;49.792;9.946;2022-10-23T15:05:13;23.40;99.90
13976;DHT22;7062;49.792;9.946;2022-10-23T15:07:39;23.20;99.90
13976;DHT22;7062;49.792;9.946;2022-10-23T15:10:05;22.90;99.90
13976;DHT22;7062;49.792;9.946;2022-10-23T15:12:34;22.80;99.90
13976;DHT22;7062;49.792;9.946;2022-10-23T15:14:59;22.70;99.90
13976;DHT22;7062;49.792;9.946;2022-10-23T15:17:25;22.40;99.90
13976;DHT22;7062;49.792;9.946;2022-10-23T15:19:51;22.30;99.90
13976;DHT22;7062;49.792;9.946;2022-10-23T15:22:16;22.20;99.90
13976;DHT22;7062;49.792;9.946;2022-10-23T15:24:44;22.00;99.90
13976;DHT22;7062;49.792;9.946;2022-10-23T15:27:10;21.70;99.90
13976;DHT22;7062;49.792;9.946;2022-10-23T15:29:35;21.50;99.90
13976;DHT22;7062;49.792;9.946;2022-10-23T15:32:02;21.40;99.90
13976;DHT22;7062;49.792;9.946;2022-10-23T15:34:28;21.20;99.90
13976;DHT22;7062;49.792;9.946;2022-10-23T15:36:55;21.00;99.90
13976;DHT22;7062;49.792;9.946;2022-10-23T15:39:24;21.00;99.90
13976;DHT22;7062;49.792;9.946;2022-10-23T15:41:53;20.80;99.90
13976;DHT22;7062;49.792;9.946;2022-10-23T15:44:20;20.70;99.90
13976;DHT22;7062;49.792;9.946;2022-10-23T15:46:46;20.60;99.90
13976;DHT22;7062;49.792;9.946;2022-10-23T15:49:13;20.60;99.90
13976;DHT22;7062;49.792;9.946;2022-10-23T15:51:39;20.40;99.90
13976;DHT22;7062;49.792;9.946;2022-10-23T15:54:06;20.30;99.90
13976;DHT22;7062;49.792;9.946;2022-10-23T15:56:33;20.20;99.90
13976;DHT22;7062;49.792;9.946;2022-10-23T15:58:58;20.20;99.90
13976;DHT22;7062;49.792;9.946;2022-10-23T16:01:24;20.10;99.90
13976;DHT22;7062;49.792;9.946;2022-10-23T16:03:50;20.10;99.90
13976;DHT22;7062;49.792;9.946;2022-10-23T16:06:16;20.10;99.90
13976;DHT22;7062;49.792;9.946;2022-10-23T16:08:42;20.20;99.90
13976;DHT22;7062;49.792;9.946;2022-10-23T16:11:23;20.00;99.90
13976;DHT22;7062;49.792;9.946;2022-10-23T16:13:49;19.90;99.90
13976;DHT22;7062;49.792;9.946;2022-10-23T16:16:16;19.80;99.90
13976;DHT22;7062;49.792;9.946;2022-10-23T16:18:42;19.60;99.90
13976;DHT22;7062;49.792;9.946;2022-10-23T16:21:22;19.70;99.90
13976;DHT22;7062;49.792;9.946;2022-10-23T16:23:49;19.70;99.90
13976;DHT22;7062;49.792;9.946;2022-10-23T16:26:15;19.70;99.90
13976;DHT22;7062;49.792;9.946;2022-10-23T16:28:41;19.70;99.90
13976;DHT22;7062;49.792;9.946;2022-10-23T16:31:10;19.60;99.90
13976;DHT22;7062;49.792;9.946;2022-10-23T16:33:36;19.50;99.90
13976;DHT22;7062;49.792;9.946;2022-10-23T16:36:05;19.50;99.90
13976;DHT22;7062;49.792;9.946;2022-10-23T16:38:31;19.50;99.90
13976;DHT22;7062;49.792;9.946;2022-10-23T16:40:57;19.40;99.90
13976;DHT22;7062;49.792;9.946;2022-10-23T16:43:23;19.30;99.90
13976;DHT22;7062;49.792;9.946;2022-10-23T16:46:12;19.30;99.90
13976;DHT22;7062;49.792;9.946;2022-10-23T16:48:39;19.30;99.90
13976;DHT22;7062;49.792;9.946;2022-10-23T16:51:06;19.20;99.90
13976;DHT22;7062;49.792;9.946;2022-10-23T16:53:32;19.20;99.90
13976;DHT22;7062;49.792;9.946;2022-10-23T16:55:58;19.20;99.90
13976;DHT22;7062;49.792;9.946;2022-10-23T16:58:24;19.00;99.90
13976;DHT22;7062;49.792;9.946;2022-10-23T17:01:05;19.10;99.90
13976;DHT22;7062;49.792;9.946;2022-10-23T17:03:35;19.00;99.90
13976;DHT22;7062;49.792;9.946;2022-10-23T17:06:03;18.80;99.90
13976;DHT22;7062;49.792;9.946;2022-10-23T17:08:30;18.80;99.90
13976;DHT22;7062;49.792;9.946;2022-10-23T17:11:26;18.80;99.90
13976;DHT22;7062;49.792;9.946;2022-10-23T17:16:32;18.60;99.90
13976;DHT22;7062;49.792;9.946;2022-10-23T17:18:59;18.60;99.90
13976;DHT22;7062;49.792;9.946;2022-10-23T17:21:26;18.60;99.90
13976;DHT22;7062;49.792;9.946;2022-10-23T17:23:55;18.60;99.90
13976;DHT22;7062;49.792;9.946;2022-10-23T17:26:21;18.60;99.90
13976;DHT22;7062;49.792;9.946;2022-10-23T17:28:47;18.50;99.90
13976;DHT22;7062;49.792;9.946;2022-10-23T17:33:41;18.50;99.90
13976;DHT22;7062;49.792;9.946;2022-10-23T17:36:09;18.50;99.90
13976;DHT22;7062;49.792;9.946;2022-10-23T17:38:36;18.50;99.90
13976;DHT22;7062;49.792;9.946;2022-10-23T17:41:03;18.40;99.90
13976;DHT22;7062;49.792;9.946;2022-10-23T17:43:28;18.30;99.90
13976;DHT22;7062;49.792;9.946;2022-10-23T17:45:54;18.30;99.90
13976;DHT22;7062;49.792;9.946;2022-10-23T17:48:20;18.30;99.90
13976;DHT22;7062;49.792;9.946;2022-10-23T17:50:45;18.30;99.90
13976;DHT22;7062;49.792;9.946;2022-10-23T17:53:11;18.20;99.90
13976;DHT22;7062;49.792;9.946;2022-10-23T17:55:38;18.20;99.90